sensor_id;sensor_type;location;lat;lon;timestamp;P1;durP1;ratioP1;P2;durP2;ratioP2
77868;SDS011;67231;59.144;37.934;2023-12-20T00:00:08;2.17;;;0.80;;
77868;SDS011;67231;59.144;37.934;2023-12-20T00:02:35;1.40;;;0.90;;
77868;SDS011;67231;59.144;37.934;2023-12-20T00:05:02;1.63;;;0.90;;
77868;SDS011;67231;59.144;37.934;2023-12-20T00:07:30;1.60;;;0.80;;
77868;SDS011;67231;59.144;37.934;2023-12-20T00:09:56;1.23;;;0.90;;
77868;SDS011;67231;59.144;37.934;2023-12-20T00:12:23;3.72;;;1.20;;
77868;SDS011;67231;59.144;37.934;2023-12-20T00:14:49;1.95;;;0.95;;
77868;SDS011;67231;59.144;37.934;2023-12-20T00:17:16;1.63;;;0.90;;
77868;SDS011;67231;59.144;37.934;2023-12-20T00:19:42;1.95;;;1.05;;
77868;SDS011;67231;59.144;37.934;2023-12-20T00:22:08;3.90;;;1.00;;
77868;SDS011;67231;59.144;37.934;2023-12-20T00:24:34;1.98;;;1.00;;
77868;SDS011;67231;59.144;37.934;2023-12-20T00:27:01;1.92;;;0.90;;
77868;SDS011;67231;59.144;37.934;2023-12-20T00:29:28;1.50;;;0.90;;
77868;SDS011;67231;59.144;37.934;2023-12-20T00:31:54;3.50;;;1.15;;
77868;SDS011;67231;59.144;37.934;2023-12-20T00:34:20;3.17;;;1.00;;
77868;SDS011;67231;59.144;37.934;2023-12-20T00:36:47;1.75;;;0.90;;
77868;SDS011;67231;59.144;37.934;2023-12-20T00:39:13;2.00;;;1.10;;
77868;SDS011;67231;59.144;37.934;2023-12-20T00:41:39;2.78;;;0.77;;
77868;SDS011;67231;59.144;37.934;2023-12-20T00:44:06;4.13;;;1.20;;
77868;SDS011;67231;59.144;37.934;2023-12-20T00:46:32;3.35;;;1.05;;
77868;SDS011;67231;59.144;37.934;2023-12-20T00:48:58;1.90;;;0.85;;
77868;SDS011;67231;59.144;37.934;2023-12-20T00:51:25;0.98;;;0.70;;
77868;SDS011;67231;59.144;37.934;2023-12-20T00:53:51;2.13;;;1.00;;
77868;SDS011;67231;59.144;37.934;2023-12-20T00:56:20;0.73;;;0.70;;
77868;SDS011;67231;59.144;37.934;2023-12-20T00:58:47;2.60;;;0.80;;
77868;SDS011;67231;59.144;37.934;2023-12-20T01:01:13;1.25;;;0.85;;
77868;SDS011;67231;59.144;37.934;2023-12-20T01:03:40;1.48;;;0.90;;
77868;SDS011;67231;59.144;37.934;2023-12-20T01:06:06;0.63;;;0.50;;
77868;SDS011;67231;59.144;37.934;2023-12-20T01:08:33;1.67;;;0.75;;
77868;SDS011;67231;59.144;37.934;2023-12-20T01:11:03;1.35;;;0.60;;
77868;SDS011;67231;59.144;37.934;2023-12-20T01:13:30;1.05;;;0.70;;
77868;SDS011;67231;59.144;37.934;2023-12-20T01:15:56;1.10;;;0.52;;
77868;SDS011;67231;59.144;37.934;2023-12-20T01:18:23;1.08;;;0.68;;
77868;SDS011;67231;59.144;37.934;2023-12-20T01:20:49;1.58;;;0.63;;
77868;SDS011;67231;59.144;37.934;2023-12-20T01:23:15;1.95;;;1.00;;
77868;SDS011;67231;59.144;37.934;2023-12-20T01:25:42;1.48;;;0.63;;
77868;SDS011;67231;59.144;37.934;2023-12-20T01:28:09;0.85;;;0.57;;
77868;SDS011;67231;59.144;37.934;2023-12-20T01:30:35;1.38;;;0.80;;
77868;SDS011;67231;59.144;37.934;2023-12-20T01:33:02;7.25;;;2.38;;
77868;SDS011;67231;59.144;37.934;2023-12-20T01:35:28;4.05;;;1.77;;
77868;SDS011;67231;59.144;37.934;2023-12-20T01:37:54;2.67;;;1.08;;
77868;SDS011;67231;59.144;37.934;2023-12-20T01:40:23;2.55;;;1.00;;
77868;SDS011;67231;59.144;37.934;2023-12-20T01:43:00;4.97;;;1.65;;
77868;SDS011;67231;59.144;37.934;2023-12-20T01:45:32;2.40;;;1.13;;
77868;SDS011;67231;59.144;37.934;2023-12-20T01:47:58;4.22;;;1.30;;
77868;SDS011;67231;59.144;37.934;2023-12-20T01:50:26;2.55;;;1.40;;
77868;SDS011;67231;59.144;37.934;2023-12-20T01:52:53;4.40;;;1.23;;
77868;SDS011;67231;59.144;37.934;2023-12-20T01:55:23;2.80;;;1.13;;
77868;SDS011;67231;59.144;37.934;2023-12-20T01:57:51;3.22;;;0.77;;
77868;SDS011;67231;59.144;37.934;2023-12-20T02:00:17;1.98;;;0.93;;
77868;SDS011;67231;59.144;37.934;2023-12-20T02:02:44;2.05;;;1.02;;
77868;SDS011;67231;59.144;37.934;2023-12-20T02:05:11;2.65;;;1.02;;
77868;SDS011;67231;59.144;37.934;2023-12-20T02:07:38;2.10;;;1.15;;
77868;SDS011;67231;59.144;37.934;2023-12-20T02:10:05;1.05;;;0.70;;
77868;SDS011;67231;59.144;37.934;2023-12-20T02:12:31;1.10;;;0.63;;
77868;SDS011;67231;59.144;37.934;2023-12-20T02:14:58;2.10;;;1.05;;
77868;SDS011;67231;59.144;37.934;2023-12-20T02:17:25;5.03;;;2.05;;
77868;SDS011;67231;59.144;37.934;2023-12-20T02:19:52;5.25;;;2.20;;
77868;SDS011;67231;59.144;37.934;2023-12-20T02:22:18;2.83;;;1.30;;
77868;SDS011;67231;59.144;37.934;2023-12-20T02:24:44;2.83;;;1.48;;
77868;SDS011;67231;59.144;37.934;2023-12-20T02:27:11;2.40;;;1.30;;
77868;SDS011;67231;59.144;37.934;2023-12-20T02:29:38;3.00;;;1.30;;
77868;SDS011;67231;59.144;37.934;2023-12-20T02:32:04;1.40;;;1.00;;
77868;SDS011;67231;59.144;37.934;2023-12-20T02:34:31;2.92;;;1.58;;
77868;SDS011;67231;59.144;37.934;2023-12-20T02:36:57;2.55;;;1.27;;
77868;SDS011;67231;59.144;37.934;2023-12-20T02:39:23;1.80;;;1.00;;
77868;SDS011;67231;59.144;37.934;2023-12-20T02:41:50;2.20;;;1.05;;
77868;SDS011;67231;59.144;37.934;2023-12-20T02:44:16;1.42;;;1.20;;
77868;SDS011;67231;59.144;37.934;2023-12-20T02:46:42;2.55;;;1.20;;
77868;SDS011;67231;59.144;37.934;2023-12-20T02:49:09;2.25;;;0.85;;
77868;SDS011;67231;59.144;37.934;2023-12-20T02:51:35;2.58;;;0.90;;
77868;SDS011;67231;59.144;37.934;2023-12-20T02:54:04;2.30;;;0.93;;
77868;SDS011;67231;59.144;37.934;2023-12-20T02:56:32;1.90;;;0.98;;
77868;SDS011;67231;59.144;37.934;2023-12-20T02:58:58;2.45;;;0.88;;
77868;SDS011;67231;59.144;37.934;2023-12-20T03:01:25;1.80;;;0.75;;
77868;SDS011;67231;59.144;37.934;2023-12-20T03:03:52;3.67;;;1.00;;
77868;SDS011;67231;59.144;37.934;2023-12-20T03:06:19;2.83;;;0.98;;
77868;SDS011;67231;59.144;37.934;2023-12-20T03:08:45;2.20;;;1.02;;
77868;SDS011;67231;59.144;37.934;2023-12-20T03:11:12;2.55;;;0.93;;
77868;SDS011;67231;59.144;37.934;2023-12-20T03:13:38;3.20;;;1.20;;
77868;SDS011;67231;59.144;37.934;2023-12-20T03:16:10;1.02;;;0.52;;
77868;SDS011;67231;59.144;37.934;2023-12-20T03:18:38;1.50;;;0.60;;
77868;SDS011;67231;59.144;37.934;2023-12-20T03:21:04;4.32;;;1.20;;
77868;SDS011;67231;59.144;37.934;2023-12-20T03:23:31;2.65;;;1.10;;
77868;SDS011;67231;59.144;37.934;2023-12-20T03:26:00;6.07;;;1.25;;
77868;SDS011;67231;59.144;37.934;2023-12-20T03:28:31;1.48;;;0.90;;
77868;SDS011;67231;59.144;37.934;2023-12-20T03:30:57;1.75;;;0.70;;
77868;SDS011;67231;59.144;37.934;2023-12-20T03:33:23;3.53;;;1.00;;
77868;SDS011;67231;59.144;37.934;2023-12-20T03:35:50;2.00;;;0.90;;
77868;SDS011;67231;59.144;37.934;2023-12-20T03:38:16;1.13;;;0.63;;
77868;SDS011;67231;59.144;37.934;2023-12-20T03:40:43;2.65;;;0.82;;
77868;SDS011;67231;59.144;37.934;2023-12-20T03:43:09;1.88;;;1.00;;
77868;SDS011;67231;59.144;37.934;2023-12-20T03:45:35;5.45;;;1.08;;
77868;SDS011;67231;59.144;37.934;2023-12-20T03:48:02;2.40;;;1.17;;
77868;SDS011;67231;59.144;37.934;2023-12-20T03:50:28;1.35;;;0.82;;
77868;SDS011;67231;59.144;37.934;2023-12-20T03:52:55;2.67;;;0.90;;
77868;SDS011;67231;59.144;37.934;2023-12-20T03:55:21;4.38;;;1.40;;
77868;SDS011;67231;59.144;37.934;2023-12-20T03:57:47;3.40;;;1.15;;
77868;SDS011;67231;59.144;37.934;2023-12-20T04:00:14;2.17;;;1.05;;
77868;SDS011;67231;59.144;37.934;2023-12-20T04:02:41;3.55;;;1.10;;
77868;SDS011;67231;59.144;37.934;2023-12-20T04:05:08;5.30;;;2.30;;
77868;SDS011;67231;59.144;37.934;2023-12-20T04:07:36;6.47;;;1.02;;
77868;SDS011;67231;59.144;37.934;2023-12-20T04:10:02;1.58;;;0.80;;
77868;SDS011;67231;59.144;37.934;2023-12-20T04:12:32;2.80;;;0.88;;
77868;SDS011;67231;59.144;37.934;2023-12-20T04:14:59;2.67;;;0.82;;
77868;SDS011;67231;59.144;37.934;2023-12-20T04:17:25;4.75;;;0.95;;
77868;SDS011;67231;59.144;37.934;2023-12-20T04:19:52;1.90;;;0.95;;
77868;SDS011;67231;59.144;37.934;2023-12-20T04:22:18;1.90;;;0.80;;
77868;SDS011;67231;59.144;37.934;2023-12-20T04:24:45;2.42;;;1.08;;
77868;SDS011;67231;59.144;37.934;2023-12-20T04:27:11;2.33;;;1.02;;
77868;SDS011;67231;59.144;37.934;2023-12-20T04:29:38;3.95;;;0.90;;
77868;SDS011;67231;59.144;37.934;2023-12-20T04:32:04;2.20;;;0.88;;
77868;SDS011;67231;59.144;37.934;2023-12-20T04:34:31;2.63;;;1.10;;
77868;SDS011;67231;59.144;37.934;2023-12-20T04:36:57;2.80;;;0.90;;
77868;SDS011;67231;59.144;37.934;2023-12-20T04:39:23;2.78;;;1.00;;
77868;SDS011;67231;59.144;37.934;2023-12-20T04:41:50;3.22;;;1.23;;
77868;SDS011;67231;59.144;37.934;2023-12-20T04:44:16;3.97;;;1.13;;
77868;SDS011;67231;59.144;37.934;2023-12-20T04:46:42;2.97;;;1.08;;
77868;SDS011;67231;59.144;37.934;2023-12-20T04:49:09;6.28;;;1.83;;
77868;SDS011;67231;59.144;37.934;2023-12-20T04:51:35;3.63;;;1.13;;
77868;SDS011;67231;59.144;37.934;2023-12-20T04:54:02;3.72;;;1.40;;
77868;SDS011;67231;59.144;37.934;2023-12-20T04:56:28;3.13;;;1.17;;
77868;SDS011;67231;59.144;37.934;2023-12-20T04:58:54;3.63;;;1.20;;
77868;SDS011;67231;59.144;37.934;2023-12-20T05:01:21;4.15;;;1.30;;
77868;SDS011;67231;59.144;37.934;2023-12-20T05:03:47;2.17;;;0.88;;
77868;SDS011;67231;59.144;37.934;2023-12-20T05:06:14;3.53;;;1.25;;
77868;SDS011;67231;59.144;37.934;2023-12-20T05:08:40;2.95;;;1.45;;
77868;SDS011;67231;59.144;37.934;2023-12-20T05:11:07;2.80;;;1.08;;
77868;SDS011;67231;59.144;37.934;2023-12-20T05:13:33;3.70;;;1.50;;
77868;SDS011;67231;59.144;37.934;2023-12-20T05:15:59;3.50;;;1.45;;
77868;SDS011;67231;59.144;37.934;2023-12-20T05:18:26;3.17;;;1.50;;
77868;SDS011;67231;59.144;37.934;2023-12-20T05:20:52;3.15;;;1.27;;
77868;SDS011;67231;59.144;37.934;2023-12-20T05:23:18;3.05;;;1.17;;
77868;SDS011;67231;59.144;37.934;2023-12-20T05:25:46;3.80;;;1.48;;
77868;SDS011;67231;59.144;37.934;2023-12-20T05:28:12;1.63;;;0.90;;
77868;SDS011;67231;59.144;37.934;2023-12-20T05:30:39;2.53;;;1.25;;
77868;SDS011;67231;59.144;37.934;2023-12-20T05:33:05;3.42;;;1.38;;
77868;SDS011;67231;59.144;37.934;2023-12-20T05:35:32;3.47;;;1.38;;
77868;SDS011;67231;59.144;37.934;2023-12-20T05:37:58;3.90;;;1.45;;
77868;SDS011;67231;59.144;37.934;2023-12-20T05:40:24;3.70;;;1.40;;
77868;SDS011;67231;59.144;37.934;2023-12-20T05:42:51;6.07;;;2.70;;
77868;SDS011;67231;59.144;37.934;2023-12-20T05:45:17;2.72;;;1.27;;
77868;SDS011;67231;59.144;37.934;2023-12-20T05:47:43;5.35;;;1.40;;
77868;SDS011;67231;59.144;37.934;2023-12-20T05:50:10;4.25;;;1.20;;
77868;SDS011;67231;59.144;37.934;2023-12-20T05:52:36;1.65;;;1.10;;
77868;SDS011;67231;59.144;37.934;2023-12-20T05:55:03;4.25;;;1.20;;
77868;SDS011;67231;59.144;37.934;2023-12-20T05:57:33;3.85;;;0.95;;
77868;SDS011;67231;59.144;37.934;2023-12-20T05:59:59;2.63;;;1.60;;
77868;SDS011;67231;59.144;37.934;2023-12-20T06:02:26;6.75;;;2.28;;
77868;SDS011;67231;59.144;37.934;2023-12-20T06:04:52;2.15;;;1.27;;
77868;SDS011;67231;59.144;37.934;2023-12-20T06:07:19;3.10;;;1.23;;
77868;SDS011;67231;59.144;37.934;2023-12-20T06:09:46;2.10;;;1.08;;
77868;SDS011;67231;59.144;37.934;2023-12-20T06:12:13;4.70;;;1.40;;
77868;SDS011;67231;59.144;37.934;2023-12-20T06:14:39;4.90;;;1.60;;
77868;SDS011;67231;59.144;37.934;2023-12-20T06:17:05;2.40;;;1.35;;
77868;SDS011;67231;59.144;37.934;2023-12-20T06:19:33;3.75;;;1.30;;
77868;SDS011;67231;59.144;37.934;2023-12-20T06:21:59;4.55;;;1.42;;
77868;SDS011;67231;59.144;37.934;2023-12-20T06:24:25;4.05;;;1.38;;
77868;SDS011;67231;59.144;37.934;2023-12-20T06:26:54;2.80;;;1.30;;
77868;SDS011;67231;59.144;37.934;2023-12-20T06:29:23;1.95;;;1.33;;
77868;SDS011;67231;59.144;37.934;2023-12-20T06:31:49;5.55;;;1.38;;
77868;SDS011;67231;59.144;37.934;2023-12-20T06:34:15;4.72;;;1.45;;
77868;SDS011;67231;59.144;37.934;2023-12-20T06:36:42;5.70;;;1.55;;
77868;SDS011;67231;59.144;37.934;2023-12-20T06:39:08;8.20;;;1.30;;
77868;SDS011;67231;59.144;37.934;2023-12-20T06:41:34;4.65;;;1.60;;
77868;SDS011;67231;59.144;37.934;2023-12-20T06:44:01;4.22;;;1.45;;
77868;SDS011;67231;59.144;37.934;2023-12-20T06:46:27;4.75;;;1.20;;
77868;SDS011;67231;59.144;37.934;2023-12-20T06:48:54;4.30;;;1.40;;
77868;SDS011;67231;59.144;37.934;2023-12-20T06:51:20;3.78;;;1.17;;
77868;SDS011;67231;59.144;37.934;2023-12-20T06:53:46;5.40;;;1.63;;
77868;SDS011;67231;59.144;37.934;2023-12-20T06:56:13;2.80;;;1.40;;
77868;SDS011;67231;59.144;37.934;2023-12-20T06:58:39;2.00;;;0.77;;
77868;SDS011;67231;59.144;37.934;2023-12-20T07:01:10;4.57;;;1.55;;
77868;SDS011;67231;59.144;37.934;2023-12-20T07:03:37;5.50;;;2.22;;
77868;SDS011;67231;59.144;37.934;2023-12-20T07:06:04;3.40;;;1.00;;
77868;SDS011;67231;59.144;37.934;2023-12-20T07:08:30;3.50;;;1.63;;
77868;SDS011;67231;59.144;37.934;2023-12-20T07:10:57;1.83;;;1.10;;
77868;SDS011;67231;59.144;37.934;2023-12-20T07:13:23;4.57;;;1.35;;
77868;SDS011;67231;59.144;37.934;2023-12-20T07:15:49;2.38;;;1.13;;
77868;SDS011;67231;59.144;37.934;2023-12-20T07:18:16;1.80;;;0.95;;
77868;SDS011;67231;59.144;37.934;2023-12-20T07:20:43;2.97;;;1.20;;
77868;SDS011;67231;59.144;37.934;2023-12-20T07:23:09;2.05;;;1.00;;
77868;SDS011;67231;59.144;37.934;2023-12-20T07:25:36;2.80;;;1.10;;
77868;SDS011;67231;59.144;37.934;2023-12-20T07:28:02;2.85;;;1.00;;
77868;SDS011;67231;59.144;37.934;2023-12-20T07:30:29;3.53;;;1.40;;
77868;SDS011;67231;59.144;37.934;2023-12-20T07:32:55;1.60;;;1.00;;
77868;SDS011;67231;59.144;37.934;2023-12-20T07:35:25;5.28;;;1.50;;
77868;SDS011;67231;59.144;37.934;2023-12-20T07:37:51;4.07;;;1.45;;
77868;SDS011;67231;59.144;37.934;2023-12-20T07:40:18;4.15;;;1.77;;
77868;SDS011;67231;59.144;37.934;2023-12-20T07:42:44;3.45;;;1.40;;
77868;SDS011;67231;59.144;37.934;2023-12-20T07:45:11;4.95;;;1.40;;
77868;SDS011;67231;59.144;37.934;2023-12-20T07:47:38;3.35;;;1.25;;
77868;SDS011;67231;59.144;37.934;2023-12-20T07:50:05;3.47;;;0.88;;
77868;SDS011;67231;59.144;37.934;2023-12-20T07:52:31;4.35;;;1.80;;
77868;SDS011;67231;59.144;37.934;2023-12-20T07:54:57;2.38;;;1.02;;
77868;SDS011;67231;59.144;37.934;2023-12-20T07:57:24;2.70;;;1.20;;
77868;SDS011;67231;59.144;37.934;2023-12-20T07:59:50;3.92;;;1.50;;
77868;SDS011;67231;59.144;37.934;2023-12-20T08:02:16;2.95;;;1.23;;
77868;SDS011;67231;59.144;37.934;2023-12-20T08:04:43;2.05;;;0.90;;
77868;SDS011;67231;59.144;37.934;2023-12-20T08:07:09;2.47;;;1.35;;
77868;SDS011;67231;59.144;37.934;2023-12-20T08:09:36;2.72;;;1.50;;
77868;SDS011;67231;59.144;37.934;2023-12-20T08:12:03;2.30;;;1.02;;
77868;SDS011;67231;59.144;37.934;2023-12-20T08:14:29;2.25;;;1.30;;
77868;SDS011;67231;59.144;37.934;2023-12-20T08:16:57;2.90;;;1.20;;
77868;SDS011;67231;59.144;37.934;2023-12-20T08:19:23;2.95;;;1.20;;
77868;SDS011;67231;59.144;37.934;2023-12-20T08:21:50;2.30;;;1.10;;
77868;SDS011;67231;59.144;37.934;2023-12-20T08:24:16;3.92;;;1.55;;
77868;SDS011;67231;59.144;37.934;2023-12-20T08:26:42;2.80;;;1.10;;
77868;SDS011;67231;59.144;37.934;2023-12-20T08:29:09;3.55;;;1.17;;
77868;SDS011;67231;59.144;37.934;2023-12-20T08:31:35;3.05;;;1.02;;
77868;SDS011;67231;59.144;37.934;2023-12-20T08:34:01;4.03;;;1.50;;
77868;SDS011;67231;59.144;37.934;2023-12-20T08:36:28;3.00;;;1.17;;
77868;SDS011;67231;59.144;37.934;2023-12-20T08:38:54;4.05;;;1.75;;
77868;SDS011;67231;59.144;37.934;2023-12-20T08:41:21;2.58;;;1.08;;
77868;SDS011;67231;59.144;37.934;2023-12-20T08:43:47;6.78;;;1.65;;
77868;SDS011;67231;59.144;37.934;2023-12-20T08:46:14;2.00;;;1.20;;
77868;SDS011;67231;59.144;37.934;2023-12-20T08:48:41;2.20;;;1.02;;
77868;SDS011;67231;59.144;37.934;2023-12-20T08:51:07;4.90;;;1.30;;
77868;SDS011;67231;59.144;37.934;2023-12-20T08:53:35;1.58;;;1.10;;
77868;SDS011;67231;59.144;37.934;2023-12-20T08:56:04;2.38;;;0.95;;
77868;SDS011;67231;59.144;37.934;2023-12-20T08:58:31;4.25;;;1.40;;
77868;SDS011;67231;59.144;37.934;2023-12-20T09:00:57;3.97;;;1.10;;
77868;SDS011;67231;59.144;37.934;2023-12-20T09:03:24;2.10;;;1.20;;
77868;SDS011;67231;59.144;37.934;2023-12-20T09:05:50;5.95;;;1.50;;
77868;SDS011;67231;59.144;37.934;2023-12-20T09:08:17;4.80;;;1.23;;
77868;SDS011;67231;59.144;37.934;2023-12-20T09:10:43;1.58;;;0.57;;
77868;SDS011;67231;59.144;37.934;2023-12-20T09:13:10;1.58;;;1.00;;
77868;SDS011;67231;59.144;37.934;2023-12-20T09:15:37;3.78;;;1.45;;
77868;SDS011;67231;59.144;37.934;2023-12-20T09:18:03;3.67;;;1.30;;
77868;SDS011;67231;59.144;37.934;2023-12-20T09:20:30;2.35;;;1.00;;
77868;SDS011;67231;59.144;37.934;2023-12-20T09:22:57;2.08;;;1.15;;
77868;SDS011;67231;59.144;37.934;2023-12-20T09:25:24;2.65;;;1.10;;
77868;SDS011;67231;59.144;37.934;2023-12-20T09:27:52;1.98;;;0.90;;
77868;SDS011;67231;59.144;37.934;2023-12-20T09:30:18;4.82;;;1.20;;
77868;SDS011;67231;59.144;37.934;2023-12-20T09:32:45;4.00;;;1.38;;
77868;SDS011;67231;59.144;37.934;2023-12-20T09:35:11;2.53;;;1.20;;
77868;SDS011;67231;59.144;37.934;2023-12-20T09:37:38;1.92;;;1.33;;
77868;SDS011;67231;59.144;37.934;2023-12-20T09:40:07;3.53;;;1.73;;
77868;SDS011;67231;59.144;37.934;2023-12-20T09:42:44;3.15;;;1.63;;
77868;SDS011;67231;59.144;37.934;2023-12-20T09:45:24;3.08;;;1.10;;
77868;SDS011;67231;59.144;37.934;2023-12-20T09:47:51;4.15;;;1.42;;
77868;SDS011;67231;59.144;37.934;2023-12-20T09:50:22;3.28;;;1.50;;
77868;SDS011;67231;59.144;37.934;2023-12-20T09:52:49;2.20;;;1.17;;
77868;SDS011;67231;59.144;37.934;2023-12-20T09:55:18;3.83;;;1.33;;
77868;SDS011;67231;59.144;37.934;2023-12-20T09:57:46;2.92;;;1.20;;
77868;SDS011;67231;59.144;37.934;2023-12-20T10:00:14;3.17;;;1.27;;
77868;SDS011;67231;59.144;37.934;2023-12-20T10:02:56;4.35;;;1.35;;
77868;SDS011;67231;59.144;37.934;2023-12-20T10:07:53;2.92;;;1.48;;
77868;SDS011;67231;59.144;37.934;2023-12-20T10:10:19;3.35;;;1.77;;
77868;SDS011;67231;59.144;37.934;2023-12-20T10:13:00;2.65;;;1.35;;
77868;SDS011;67231;59.144;37.934;2023-12-20T10:15:36;3.97;;;1.42;;
77868;SDS011;67231;59.144;37.934;2023-12-20T10:18:04;2.88;;;1.25;;
77868;SDS011;67231;59.144;37.934;2023-12-20T10:20:31;3.67;;;1.20;;
77868;SDS011;67231;59.144;37.934;2023-12-20T10:22:58;5.38;;;1.60;;
77868;SDS011;67231;59.144;37.934;2023-12-20T10:25:25;3.60;;;1.35;;
77868;SDS011;67231;59.144;37.934;2023-12-20T10:30:39;4.32;;;1.23;;
77868;SDS011;67231;59.144;37.934;2023-12-20T10:33:06;2.17;;;1.20;;
77868;SDS011;67231;59.144;37.934;2023-12-20T10:35:34;3.33;;;1.25;;
77868;SDS011;67231;59.144;37.934;2023-12-20T10:38:03;3.67;;;1.40;;
77868;SDS011;67231;59.144;37.934;2023-12-20T10:40:34;2.05;;;1.20;;
77868;SDS011;67231;59.144;37.934;2023-12-20T10:43:03;2.67;;;0.82;;
77868;SDS011;67231;59.144;37.934;2023-12-20T10:45:30;1.73;;;0.93;;
77868;SDS011;67231;59.144;37.934;2023-12-20T10:48:00;3.25;;;1.17;;
77868;SDS011;67231;59.144;37.934;2023-12-20T10:50:28;2.83;;;1.35;;
77868;SDS011;67231;59.144;37.934;2023-12-20T10:52:56;4.78;;;1.30;;
77868;SDS011;67231;59.144;37.934;2023-12-20T10:55:24;5.53;;;1.55;;
77868;SDS011;67231;59.144;37.934;2023-12-20T10:57:51;2.03;;;1.17;;
77868;SDS011;67231;59.144;37.934;2023-12-20T11:00:18;2.47;;;0.90;;
77868;SDS011;67231;59.144;37.934;2023-12-20T11:02:46;3.83;;;1.58;;
77868;SDS011;67231;59.144;37.934;2023-12-20T11:06:00;2.83;;;1.23;;
77868;SDS011;67231;59.144;37.934;2023-12-20T11:13:43;6.32;;;1.23;;
77868;SDS011;67231;59.144;37.934;2023-12-20T11:16:20;3.97;;;1.35;;
77868;SDS011;67231;59.144;37.934;2023-12-20T11:18:46;2.30;;;1.23;;
77868;SDS011;67231;59.144;37.934;2023-12-20T11:21:12;6.60;;;1.70;;
77868;SDS011;67231;59.144;37.934;2023-12-20T11:23:40;3.58;;;1.45;;
77868;SDS011;67231;59.144;37.934;2023-12-20T11:26:08;4.95;;;1.50;;
77868;SDS011;67231;59.144;37.934;2023-12-20T11:28:35;4.35;;;1.55;;
77868;SDS011;67231;59.144;37.934;2023-12-20T11:31:01;6.18;;;1.48;;
77868;SDS011;67231;59.144;37.934;2023-12-20T11:33:46;4.38;;;1.52;;
77868;SDS011;67231;59.144;37.934;2023-12-20T11:36:20;4.25;;;1.55;;
77868;SDS011;67231;59.144;37.934;2023-12-20T11:38:56;4.55;;;1.30;;
77868;SDS011;67231;59.144;37.934;2023-12-20T11:41:23;1.63;;;0.90;;
77868;SDS011;67231;59.144;37.934;2023-12-20T11:43:54;4.22;;;1.45;;
77868;SDS011;67231;59.144;37.934;2023-12-20T11:46:22;4.97;;;1.10;;
77868;SDS011;67231;59.144;37.934;2023-12-20T11:48:48;3.75;;;1.20;;
77868;SDS011;67231;59.144;37.934;2023-12-20T11:51:15;3.95;;;1.15;;
77868;SDS011;67231;59.144;37.934;2023-12-20T11:53:41;2.30;;;1.17;;
77868;SDS011;67231;59.144;37.934;2023-12-20T11:56:10;2.38;;;1.13;;
77868;SDS011;67231;59.144;37.934;2023-12-20T11:58:36;2.22;;;1.00;;
77868;SDS011;67231;59.144;37.934;2023-12-20T12:01:03;2.97;;;1.10;;
77868;SDS011;67231;59.144;37.934;2023-12-20T12:03:33;3.22;;;1.30;;
77868;SDS011;67231;59.144;37.934;2023-12-20T12:05:59;2.38;;;1.08;;
77868;SDS011;67231;59.144;37.934;2023-12-20T12:08:27;3.08;;;1.20;;
77868;SDS011;67231;59.144;37.934;2023-12-20T12:10:53;3.50;;;1.10;;
77868;SDS011;67231;59.144;37.934;2023-12-20T12:13:20;3.72;;;1.50;;
77868;SDS011;67231;59.144;37.934;2023-12-20T12:15:47;4.13;;;1.10;;
77868;SDS011;67231;59.144;37.934;2023-12-20T12:18:17;1.52;;;0.60;;
77868;SDS011;67231;59.144;37.934;2023-12-20T12:20:44;3.22;;;1.20;;
77868;SDS011;67231;59.144;37.934;2023-12-20T12:23:11;2.20;;;1.00;;
77868;SDS011;67231;59.144;37.934;2023-12-20T12:25:38;3.60;;;1.00;;
77868;SDS011;67231;59.144;37.934;2023-12-20T12:28:04;4.72;;;1.58;;
77868;SDS011;67231;59.144;37.934;2023-12-20T12:30:31;3.25;;;1.30;;
77868;SDS011;67231;59.144;37.934;2023-12-20T12:32:57;5.28;;;1.60;;
77868;SDS011;67231;59.144;37.934;2023-12-20T12:35:24;6.25;;;1.52;;
77868;SDS011;67231;59.144;37.934;2023-12-20T12:37:50;2.97;;;1.50;;
77868;SDS011;67231;59.144;37.934;2023-12-20T12:40:17;4.57;;;1.40;;
77868;SDS011;67231;59.144;37.934;2023-12-20T12:42:45;3.75;;;1.45;;
77868;SDS011;67231;59.144;37.934;2023-12-20T12:45:12;5.95;;;1.65;;
77868;SDS011;67231;59.144;37.934;2023-12-20T12:47:38;5.53;;;1.63;;
77868;SDS011;67231;59.144;37.934;2023-12-20T12:50:05;3.33;;;1.50;;
77868;SDS011;67231;59.144;37.934;2023-12-20T12:52:32;3.28;;;0.98;;
77868;SDS011;67231;59.144;37.934;2023-12-20T12:54:59;4.03;;;1.10;;
77868;SDS011;67231;59.144;37.934;2023-12-20T12:57:26;2.63;;;1.20;;
77868;SDS011;67231;59.144;37.934;2023-12-20T12:59:52;3.92;;;1.30;;
77868;SDS011;67231;59.144;37.934;2023-12-20T13:02:18;3.63;;;1.38;;
77868;SDS011;67231;59.144;37.934;2023-12-20T13:04:45;3.42;;;1.55;;
77868;SDS011;67231;59.144;37.934;2023-12-20T13:07:12;1.63;;;1.10;;
77868;SDS011;67231;59.144;37.934;2023-12-20T13:09:39;3.97;;;1.63;;
77868;SDS011;67231;59.144;37.934;2023-12-20T13:12:06;4.95;;;1.75;;
77868;SDS011;67231;59.144;37.934;2023-12-20T13:14:34;5.70;;;1.38;;
77868;SDS011;67231;59.144;37.934;2023-12-20T13:17:03;5.28;;;1.92;;
77868;SDS011;67231;59.144;37.934;2023-12-20T13:19:30;4.28;;;1.63;;
77868;SDS011;67231;59.144;37.934;2023-12-20T13:21:57;6.78;;;1.55;;
77868;SDS011;67231;59.144;37.934;2023-12-20T13:24:26;6.05;;;1.92;;
77868;SDS011;67231;59.144;37.934;2023-12-20T13:26:53;5.10;;;1.98;;
77868;SDS011;67231;59.144;37.934;2023-12-20T13:29:19;5.45;;;1.77;;
77868;SDS011;67231;59.144;37.934;2023-12-20T13:31:45;13.00;;;2.25;;
77868;SDS011;67231;59.144;37.934;2023-12-20T13:34:12;5.95;;;1.95;;
77868;SDS011;67231;59.144;37.934;2023-12-20T13:36:38;10.02;;;2.60;;
77868;SDS011;67231;59.144;37.934;2023-12-20T13:39:05;8.93;;;2.25;;
77868;SDS011;67231;59.144;37.934;2023-12-20T13:41:32;8.05;;;2.30;;
77868;SDS011;67231;59.144;37.934;2023-12-20T13:43:59;11.25;;;2.85;;
77868;SDS011;67231;59.144;37.934;2023-12-20T13:46:27;12.43;;;2.40;;
77868;SDS011;67231;59.144;37.934;2023-12-20T13:48:54;11.75;;;2.05;;
77868;SDS011;67231;59.144;37.934;2023-12-20T13:51:20;11.57;;;2.90;;
77868;SDS011;67231;59.144;37.934;2023-12-20T13:53:46;12.82;;;2.50;;
77868;SDS011;67231;59.144;37.934;2023-12-20T13:56:15;13.15;;;3.80;;
77868;SDS011;67231;59.144;37.934;2023-12-20T13:58:42;16.45;;;4.70;;
77868;SDS011;67231;59.144;37.934;2023-12-20T14:01:09;13.68;;;4.75;;
77868;SDS011;67231;59.144;37.934;2023-12-20T14:03:39;15.85;;;6.15;;
77868;SDS011;67231;59.144;37.934;2023-12-20T14:06:05;12.40;;;4.68;;
77868;SDS011;67231;59.144;37.934;2023-12-20T14:08:32;15.70;;;4.35;;
77868;SDS011;67231;59.144;37.934;2023-12-20T14:10:58;17.67;;;5.72;;
77868;SDS011;67231;59.144;37.934;2023-12-20T14:13:24;16.45;;;5.05;;
77868;SDS011;67231;59.144;37.934;2023-12-20T14:15:51;15.77;;;3.47;;
77868;SDS011;67231;59.144;37.934;2023-12-20T14:18:17;20.52;;;4.20;;
77868;SDS011;67231;59.144;37.934;2023-12-20T14:20:44;13.00;;;4.43;;
77868;SDS011;67231;59.144;37.934;2023-12-20T14:23:12;17.10;;;4.93;;
77868;SDS011;67231;59.144;37.934;2023-12-20T14:25:41;17.08;;;5.82;;
77868;SDS011;67231;59.144;37.934;2023-12-20T14:28:08;15.52;;;5.53;;
77868;SDS011;67231;59.144;37.934;2023-12-20T14:30:36;11.48;;;4.10;;
77868;SDS011;67231;59.144;37.934;2023-12-20T14:33:04;18.92;;;6.68;;
77868;SDS011;67231;59.144;37.934;2023-12-20T14:35:30;22.33;;;7.53;;
77868;SDS011;67231;59.144;37.934;2023-12-20T14:37:57;11.00;;;3.85;;
77868;SDS011;67231;59.144;37.934;2023-12-20T14:40:23;11.73;;;3.55;;
77868;SDS011;67231;59.144;37.934;2023-12-20T14:42:49;11.07;;;3.42;;